sensor_id;sensor_type;location;lat;lon;timestamp;pressure;altitude;pressure_sealevel;temperature;humidity
73240;BME280;61452;40.054;4.110;2023-06-14T00:04:53;100898.28;;;24.28;59.94
73240;BME280;61452;40.054;4.110;2023-06-14T00:09:55;100890.72;;;24.24;59.92
73240;BME280;61452;40.054;4.110;2023-06-14T00:14:58;100875.84;;;24.29;59.71
73240;BME280;61452;40.054;4.110;2023-06-14T00:20:00;100865.97;;;24.30;59.83
73240;BME280;61452;40.054;4.110;2023-06-14T00:25:02;100876.34;;;24.25;59.85
73240;BME280;61452;40.054;4.110;2023-06-14T00:30:24;100872.97;;;24.23;59.62
73240;BME280;61452;40.054;4.110;2023-06-14T00:35:29;100856.72;;;24.24;59.63
73240;BME280;61452;40.054;4.110;2023-06-14T00:40:32;100867.81;;;24.29;59.58
73240;BME280;61452;40.054;4.110;2023-06-14T00:45:34;100869.78;;;24.27;59.42
73240;BME280;61452;40.054;4.110;2023-06-14T00:50:37;100861.25;;;24.24;59.66
73240;BME280;61452;40.054;4.110;2023-06-14T00:55:39;100867.59;;;24.23;59.51
73240;BME280;61452;40.054;4.110;2023-06-14T01:00:42;100873.47;;;24.26;59.51
73240;BME280;61452;40.054;4.110;2023-06-14T01:05:44;100864.97;;;24.31;59.32
73240;BME280;61452;40.054;4.110;2023-06-14T01:11:07;100857.56;;;24.25;59.45
73240;BME280;61452;40.054;4.110;2023-06-14T01:16:14;100852.34;;;24.23;59.51
73240;BME280;61452;40.054;4.110;2023-06-14T01:21:26;100844.16;;;24.25;59.22
73240;BME280;61452;40.054;4.110;2023-06-14T01:26:30;100843.63;;;24.21;59.40
73240;BME280;61452;40.054;4.110;2023-06-14T01:31:34;100846.00;;;24.24;59.47
73240;BME280;61452;40.054;4.110;2023-06-14T01:36:43;100846.00;;;24.24;59.25
73240;BME280;61452;40.054;4.110;2023-06-14T01:41:46;100843.47;;;24.23;59.23
73240;BME280;61452;40.054;4.110;2023-06-14T01:46:49;100838.25;;;24.21;59.26
73240;BME280;61452;40.054;4.110;2023-06-14T01:51:52;100834.94;;;24.19;59.29
73240;BME280;61452;40.054;4.110;2023-06-14T01:56:54;100835.75;;;24.19;59.40
73240;BME280;61452;40.054;4.110;2023-06-14T02:01:57;100838.25;;;24.21;59.23
73240;BME280;61452;40.054;4.110;2023-06-14T02:06:59;100832.91;;;24.21;59.27
73240;BME280;61452;40.054;4.110;2023-06-14T02:12:01;100828.72;;;24.18;59.23
73240;BME280;61452;40.054;4.110;2023-06-14T02:17:04;100823.38;;;24.18;59.16
73240;BME280;61452;40.054;4.110;2023-06-14T02:22:06;100827.69;;;24.19;59.11
73240;BME280;61452;40.054;4.110;2023-06-14T02:27:09;100868.75;;;24.20;59.21
73240;BME280;61452;40.054;4.110;2023-06-14T02:32:12;100892.03;;;24.19;59.15
73240;BME280;61452;40.054;4.110;2023-06-14T02:37:14;100898.22;;;24.20;59.20
73240;BME280;61452;40.054;4.110;2023-06-14T02:42:16;100896.41;;;24.21;59.16
73240;BME280;61452;40.054;4.110;2023-06-14T02:47:19;100878.78;;;24.18;58.86
73240;BME280;61452;40.054;4.110;2023-06-14T02:52:21;100850.25;;;24.09;58.88
73240;BME280;61452;40.054;4.110;2023-06-14T02:57:23;100848.44;;;24.17;59.09
73240;BME280;61452;40.054;4.110;2023-06-14T03:02:26;100866.06;;;24.20;58.86
73240;BME280;61452;40.054;4.110;2023-06-14T03:07:28;100879.16;;;24.23;58.99
73240;BME280;61452;40.054;4.110;2023-06-14T03:12:33;100868.59;;;24.22;59.01
73240;BME280;61452;40.054;4.110;2023-06-14T03:17:36;100868.59;;;24.22;58.90
73240;BME280;61452;40.054;4.110;2023-06-14T03:22:42;100863.78;;;24.25;58.80
73240;BME280;61452;40.054;4.110;2023-06-14T03:27:48;100851.66;;;24.21;58.62
73240;BME280;61452;40.054;4.110;2023-06-14T03:32:52;100838.81;;;24.25;58.68
73240;BME280;61452;40.054;4.110;2023-06-14T03:37:55;100822.53;;;24.26;58.69
73240;BME280;61452;40.054;4.110;2023-06-14T03:42:58;100799.91;;;24.21;58.96
73240;BME280;61452;40.054;4.110;2023-06-14T03:48:00;100798.75;;;24.23;58.81
73240;BME280;61452;40.054;4.110;2023-06-14T03:53:05;100807.47;;;24.25;58.74
73240;BME280;61452;40.054;4.110;2023-06-14T03:58:10;100785.66;;;24.20;58.74
73240;BME280;61452;40.054;4.110;2023-06-14T04:03:12;100816.66;;;24.23;58.70
73240;BME280;61452;40.054;4.110;2023-06-14T04:08:18;100813.84;;;24.24;58.67
73240;BME280;61452;40.054;4.110;2023-06-14T04:13:21;100835.03;;;24.17;58.84
73240;BME280;61452;40.054;4.110;2023-06-14T04:18:23;100838.25;;;24.21;58.85
73240;BME280;61452;40.054;4.110;2023-06-14T04:23:25;100842.47;;;24.24;58.68
73240;BME280;61452;40.054;4.110;2023-06-14T04:28:30;100851.81;;;24.19;58.87
73240;BME280;61452;40.054;4.110;2023-06-14T04:33:37;100856.03;;;24.22;58.72
73240;BME280;61452;40.054;4.110;2023-06-14T04:38:54;100865.06;;;24.21;58.69
73240;BME280;61452;40.054;4.110;2023-06-14T04:44:00;100861.72;;;24.19;58.71
73240;BME280;61452;40.054;4.110;2023-06-14T04:49:15;100871.88;;;24.15;58.83
73240;BME280;61452;40.054;4.110;2023-06-14T04:54:17;100877.59;;;24.12;58.98
73240;BME280;61452;40.054;4.110;2023-06-14T04:59:21;100892.03;;;24.19;58.88
73240;BME280;61452;40.054;4.110;2023-06-14T05:04:27;100889.50;;;24.18;58.80
73240;BME280;61452;40.054;4.110;2023-06-14T05:09:31;100901.22;;;24.17;58.86
73240;BME280;61452;40.054;4.110;2023-06-14T05:14:34;100909.81;;;24.21;58.77
73240;BME280;61452;40.054;4.110;2023-06-14T05:19:38;100919.00;;;24.18;58.53
73240;BME280;61452;40.054;4.110;2023-06-14T05:24:40;100919.88;;;24.18;58.63
73240;BME280;61452;40.054;4.110;2023-06-14T05:29:43;100910.09;;;24.17;58.50
73240;BME280;61452;40.054;4.110;2023-06-14T05:34:45;100908.25;;;24.18;58.73
73240;BME280;61452;40.054;4.110;2023-06-14T05:39:48;100905.03;;;24.14;58.62
73240;BME280;61452;40.054;4.110;2023-06-14T05:44:50;100912.25;;;24.14;58.66
73240;BME280;61452;40.054;4.110;2023-06-14T05:49:52;100921.31;;;24.13;58.71
73240;BME280;61452;40.054;4.110;2023-06-14T05:54:54;100939.38;;;24.11;58.86
73240;BME280;61452;40.054;4.110;2023-06-14T05:59:56;100936.91;;;24.17;58.58
73240;BME280;61452;40.054;4.110;2023-06-14T06:04:58;100963.59;;;24.19;58.49
73240;BME280;61452;40.054;4.110;2023-06-14T06:10:01;100970.22;;;24.15;58.42
73240;BME280;61452;40.054;4.110;2023-06-14T06:15:03;100972.44;;;24.19;58.46
73240;BME280;61452;40.054;4.110;2023-06-14T06:20:06;100953.69;;;24.19;58.21
73240;BME280;61452;40.054;4.110;2023-06-14T06:25:10;100969.06;;;24.17;58.32
73240;BME280;61452;40.054;4.110;2023-06-14T06:30:12;100985.84;;;24.19;58.32
73240;BME280;61452;40.054;4.110;2023-06-14T06:35:15;100990.22;;;24.21;58.37
73240;BME280;61452;40.054;4.110;2023-06-14T06:40:17;101004.06;;;24.16;58.54
73240;BME280;61452;40.054;4.110;2023-06-14T06:45:19;101009.75;;;24.13;58.71
73240;BME280;61452;40.054;4.110;2023-06-14T06:50:25;101001.41;;;24.16;58.58
73240;BME280;61452;40.054;4.110;2023-06-14T06:55:27;100987.84;;;24.17;58.61
73240;BME280;61452;40.054;4.110;2023-06-14T07:00:30;100995.34;;;24.14;58.56
73240;BME280;61452;40.054;4.110;2023-06-14T07:05:32;100997.72;;;24.17;58.62
73240;BME280;61452;40.054;4.110;2023-06-14T07:10:34;100983.31;;;24.18;58.44
73240;BME280;61452;40.054;4.110;2023-06-14T07:15:36;100993.34;;;24.16;58.70
73240;BME280;61452;40.054;4.110;2023-06-14T07:20:39;100985.31;;;24.16;58.71
73240;BME280;61452;40.054;4.110;2023-06-14T07:25:42;100995.75;;;24.19;58.50
73240;BME280;61452;40.054;4.110;2023-06-14T07:30:44;100987.47;;;24.12;58.57
73240;BME280;61452;40.054;4.110;2023-06-14T07:35:46;100992.00;;;24.12;58.94
73240;BME280;61452;40.054;4.110;2023-06-14T07:40:49;100993.81;;;24.11;58.79
73240;BME280;61452;40.054;4.110;2023-06-14T07:45:52;101000.03;;;24.12;59.05
73240;BME280;61452;40.054;4.110;2023-06-14T07:51:07;101010.75;;;24.12;58.84
73240;BME280;61452;40.054;4.110;2023-06-14T07:56:10;101012.13;;;24.16;58.77
73240;BME280;61452;40.054;4.110;2023-06-14T08:01:12;101015.94;;;24.13;58.96
73240;BME280;61452;40.054;4.110;2023-06-14T08:06:15;101013.25;;;24.13;59.11
73240;BME280;61452;40.054;4.110;2023-06-14T08:11:17;101017.94;;;24.11;59.17
73240;BME280;61452;40.054;4.110;2023-06-14T08:16:19;101013.94;;;24.15;58.67
73240;BME280;61452;40.054;4.110;2023-06-14T08:21:21;101021.84;;;24.17;58.82
73240;BME280;61452;40.054;4.110;2023-06-14T08:26:24;101022.31;;;24.12;59.09
73240;BME280;61452;40.054;4.110;2023-06-14T08:31:26;101026.66;;;24.13;59.36
73240;BME280;61452;40.054;4.110;2023-06-14T08:36:29;101027.00;;;24.10;59.39
73240;BME280;61452;40.054;4.110;2023-06-14T08:41:32;101033.88;;;24.13;59.26
73240;BME280;61452;40.054;4.110;2023-06-14T08:46:34;101042.06;;;24.11;59.47
73240;BME280;61452;40.054;4.110;2023-06-14T08:51:38;101051.81;;;24.12;59.49
73240;BME280;61452;40.054;4.110;2023-06-14T08:56:42;101054.50;;;24.12;59.54
73240;BME280;61452;40.054;4.110;2023-06-14T09:02:21;101075.22;;;24.10;59.61
73240;BME280;61452;40.054;4.110;2023-06-14T09:07:24;101096.22;;;24.15;59.88
73240;BME280;61452;40.054;4.110;2023-06-14T09:12:27;101107.06;;;24.13;59.70
73240;BME280;61452;40.054;4.110;2023-06-14T09:17:29;101115.97;;;24.14;59.96
73240;BME280;61452;40.054;4.110;2023-06-14T09:22:33;101127.25;;;24.17;60.04
73240;BME280;61452;40.054;4.110;2023-06-14T09:27:36;101138.25;;;24.14;60.35
73240;BME280;61452;40.054;4.110;2023-06-14T09:32:41;101136.25;;;24.16;60.08
73240;BME280;61452;40.054;4.110;2023-06-14T09:37:44;101137.97;;;24.17;59.85
73240;BME280;61452;40.054;4.110;2023-06-14T09:42:47;101140.25;;;24.12;60.37
73240;BME280;61452;40.054;4.110;2023-06-14T09:47:49;101147.00;;;24.16;59.92
73240;BME280;61452;40.054;4.110;2023-06-14T09:53:10;101148.69;;;24.17;59.98
73240;BME280;61452;40.054;4.110;2023-06-14T09:58:14;101155.19;;;24.15;60.32
73240;BME280;61452;40.054;4.110;2023-06-14T10:03:29;101160.41;;;24.16;60.31
73240;BME280;61452;40.054;4.110;2023-06-14T10:08:53;101165.75;;;24.16;60.19
73240;BME280;61452;40.054;4.110;2023-06-14T10:13:58;101163.91;;;24.17;60.62
73240;BME280;61452;40.054;4.110;2023-06-14T10:19:03;101158.56;;;24.17;60.62
73240;BME280;61452;40.054;4.110;2023-06-14T10:24:10;101158.69;;;24.15;61.20
73240;BME280;61452;40.054;4.110;2023-06-14T10:29:14;101158.56;;;24.17;60.69
73240;BME280;61452;40.054;4.110;2023-06-14T10:34:38;101161.38;;;24.15;60.92
73240;BME280;61452;40.054;4.110;2023-06-14T10:39:42;101156.03;;;24.15;61.40
73240;BME280;61452;40.054;4.110;2023-06-14T10:50:06;101154.88;;;24.18;60.66
73240;BME280;61452;40.054;4.110;2023-06-14T10:55:13;101149.81;;;24.15;61.12
73240;BME280;61452;40.054;4.110;2023-06-14T11:00:22;101155.03;;;24.16;61.42
73240;BME280;61452;40.054;4.110;2023-06-14T11:05:28;101157.84;;;24.15;61.44
73240;BME280;61452;40.054;4.110;2023-06-14T11:10:37;101161.38;;;24.15;62.59
73240;BME280;61452;40.054;4.110;2023-06-14T11:15:47;101162.22;;;24.16;62.10
73240;BME280;61452;40.054;4.110;2023-06-14T11:20:49;101160.25;;;24.18;61.71
73240;BME280;61452;40.054;4.110;2023-06-14T11:25:52;101153.19;;;24.17;61.78
73240;BME280;61452;40.054;4.110;2023-06-14T11:31:01;101171.13;;;24.16;62.32
73240;BME280;61452;40.054;4.110;2023-06-14T11:36:06;101171.53;;;24.22;61.99
73240;BME280;61452;40.054;4.110;2023-06-14T11:41:10;101157.56;;;24.18;62.82
73240;BME280;61452;40.054;4.110;2023-06-14T11:46:13;101160.41;;;24.16;62.99
73240;BME280;61452;40.054;4.110;2023-06-14T11:51:19;101163.63;;;24.20;62.07
73240;BME280;61452;40.054;4.110;2023-06-14T11:56:22;101161.78;;;24.21;62.36
73240;BME280;61452;40.054;4.110;2023-06-14T12:01:24;101170.81;;;24.19;62.50
73240;BME280;61452;40.054;4.110;2023-06-14T12:06:29;101170.81;;;24.19;62.69
73240;BME280;61452;40.054;4.110;2023-06-14T12:11:35;101161.13;;;24.18;63.21
73240;BME280;61452;40.054;4.110;2023-06-14T12:16:39;101166.31;;;24.20;63.25
73240;BME280;61452;40.054;4.110;2023-06-14T12:21:43;101164.47;;;24.21;63.02
73240;BME280;61452;40.054;4.110;2023-06-14T12:26:46;101175.19;;;24.21;62.97
73240;BME280;61452;40.054;4.110;2023-06-14T12:31:49;101176.03;;;24.21;62.98
73240;BME280;61452;40.054;4.110;2023-06-14T12:36:51;101181.56;;;24.19;63.38
73240;BME280;61452;40.054;4.110;2023-06-14T12:41:53;101186.91;;;24.19;64.07
73240;BME280;61452;40.054;4.110;2023-06-14T12:46:56;101182.25;;;24.22;62.99
73240;BME280;61452;40.054;4.110;2023-06-14T12:51:58;101185.78;;;24.22;63.21
73240;BME280;61452;40.054;4.110;2023-06-14T12:57:00;101191.97;;;24.23;63.22
73240;BME280;61452;40.054;4.110;2023-06-14T13:02:19;101201.88;;;24.22;63.36
73240;BME280;61452;40.054;4.110;2023-06-14T13:07:26;101195.50;;;24.23;63.32
73240;BME280;61452;40.054;4.110;2023-06-14T13:12:28;101205.53;;;24.21;63.93
73240;BME280;61452;40.054;4.110;2023-06-14T13:17:30;101214.13;;;24.25;63.25
73240;BME280;61452;40.054;4.110;2023-06-14T13:22:35;101215.13;;;24.24;63.48
73240;BME280;61452;40.054;4.110;2023-06-14T13:27:37;101224.84;;;24.25;63.43
73240;BME280;61452;40.054;4.110;2023-06-14T13:32:40;101228.53;;;24.24;63.77
73240;BME280;61452;40.054;4.110;2023-06-14T13:37:42;101224.84;;;24.25;63.60
73240;BME280;61452;40.054;4.110;2023-06-14T13:42:46;101225.69;;;24.25;64.02
73240;BME280;61452;40.054;4.110;2023-06-14T13:47:48;101230.22;;;24.25;63.85
73240;BME280;61452;40.054;4.110;2023-06-14T13:52:51;101230.75;;;24.28;63.64
73240;BME280;61452;40.054;4.110;2023-06-14T13:57:53;101229.19;;;24.26;63.86
73240;BME280;61452;40.054;4.110;2023-06-14T14:02:55;101231.72;;;24.27;64.18
73240;BME280;61452;40.054;4.110;2023-06-14T14:07:59;101226.38;;;24.27;63.77
73240;BME280;61452;40.054;4.110;2023-06-14T14:13:01;101228.06;;;24.28;63.69
73240;BME280;61452;40.054;4.110;2023-06-14T14:18:03;101231.72;;;24.27;64.08
73240;BME280;61452;40.054;4.110;2023-06-14T14:23:05;101226.38;;;24.27;64.01
73240;BME280;61452;40.054;4.110;2023-06-14T14:28:07;101234.13;;;24.30;64.03
73240;BME280;61452;40.054;4.110;2023-06-14T14:33:11;101242.31;;;24.29;64.41
73240;BME280;61452;40.054;4.110;2023-06-14T14:38:17;101237.09;;;24.27;64.81
73240;BME280;61452;40.054;4.110;2023-06-14T14:43:19;101240.16;;;24.32;64.10
73240;BME280;61452;40.054;4.110;2023-06-14T14:48:21;101234.97;;;24.31;64.01
73240;BME280;61452;40.054;4.110;2023-06-14T14:53:23;101236.81;;;24.30;64.61
73240;BME280;61452;40.054;4.110;2023-06-14T14:58:25;101235.97;;;24.30;64.74
73240;BME280;61452;40.054;4.110;2023-06-14T15:03:28;101246.53;;;24.31;64.21
73240;BME280;61452;40.054;4.110;2023-06-14T15:08:30;101244.84;;;24.30;64.27
73240;BME280;61452;40.054;4.110;2023-06-14T15:13:32;101247.38;;;24.32;64.17
73240;BME280;61452;40.054;4.110;2023-06-14T15:18:34;101246.38;;;24.33;64.12
73240;BME280;61452;40.054;4.110;2023-06-14T15:23:36;101251.91;;;24.31;64.43
73240;BME280;61452;40.054;4.110;2023-06-14T15:28:39;101245.53;;;24.32;64.16
73240;BME280;61452;40.054;4.110;2023-06-14T15:33:41;101254.28;;;24.34;64.35
73240;BME280;61452;40.054;4.110;2023-06-14T15:38:43;101250.88;;;24.32;64.10
73240;BME280;61452;40.054;4.110;2023-06-14T15:43:45;101250.88;;;24.32;64.09
73240;BME280;61452;40.054;4.110;2023-06-14T15:48:48;101246.38;;;24.33;64.61
73240;BME280;61452;40.054;4.110;2023-06-14T15:53:50;101249.75;;;24.35;64.31
73240;BME280;61452;40.054;4.110;2023-06-14T15:58:54;101254.41;;;24.33;64.61
73240;BME280;61452;40.054;4.110;2023-06-14T16:03:56;101260.47;;;24.35;64.10
73240;BME280;61452;40.054;4.110;2023-06-14T16:08:58;101259.63;;;24.34;64.18
73240;BME280;61452;40.054;4.110;2023-06-14T16:14:00;101262.31;;;24.34;64.56
73240;BME280;61452;40.054;4.110;2023-06-14T16:19:02;101262.03;;;24.37;64.01
73240;BME280;61452;40.054;4.110;2023-06-14T16:24:05;101255.97;;;24.35;64.72
73240;BME280;61452;40.054;4.110;2023-06-14T16:29:08;101254.13;;;24.36;64.20
73240;BME280;61452;40.054;4.110;2023-06-14T16:34:10;101264.53;;;24.39;64.16
73240;BME280;61452;40.054;4.110;2023-06-14T16:39:13;101267.53;;;24.36;64.25
73240;BME280;61452;40.054;4.110;2023-06-14T16:44:15;101267.38;;;24.37;64.01
73240;BME280;61452;40.054;4.110;2023-06-14T16:49:18;101273.41;;;24.39;64.05
73240;BME280;61452;40.054;4.110;2023-06-14T16:54:20;101287.00;;;24.38;64.23
73240;BME280;61452;40.054;4.110;2023-06-14T16:59:22;101294.03;;;24.39;63.88
73240;BME280;61452;40.054;4.110;2023-06-14T17:04:24;101302.06;;;24.39;64.25
73240;BME280;61452;40.054;4.110;2023-06-14T17:09:26;101309.44;;;24.37;64.59
73240;BME280;61452;40.054;4.110;2023-06-14T17:14:28;101304.63;;;24.40;64.02
73240;BME280;61452;40.054;4.110;2023-06-14T17:19:31;101302.25;;;24.37;64.08
73240;BME280;61452;40.054;4.110;2023-06-14T17:24:33;101299.56;;;24.37;64.38
73240;BME280;61452;40.054;4.110;2023-06-14T17:29:35;101306.31;;;24.41;64.18
73240;BME280;61452;40.054;4.110;2023-06-14T17:34:37;101303.91;;;24.38;64.44
73240;BME280;61452;40.054;4.110;2023-06-14T17:39:39;101313.50;;;24.41;63.98
73240;BME280;61452;40.054;4.110;2023-06-14T17:44:43;101320.72;;;24.40;64.03
73240;BME280;61452;40.054;4.110;2023-06-14T17:49:46;101321.69;;;24.39;64.23
73240;BME280;61452;40.054;4.110;2023-06-14T17:54:51;101331.16;;;24.43;63.87
73240;BME280;61452;40.054;4.110;2023-06-14T17:59:54;101333.25;;;24.40;64.09
73240;BME280;61452;40.054;4.110;2023-06-14T18:04:59;101336.78;;;24.40;64.09
73240;BME280;61452;40.054;4.110;2023-06-14T18:10:01;101341.31;;;24.40;64.49
73240;BME280;61452;40.054;4.110;2023-06-14T18:15:03;101363.63;;;24.40;64.41
73240;BME280;61452;40.054;4.110;2023-06-14T18:20:06;101357.25;;;24.41;64.25
73240;BME280;61452;40.054;4.110;2023-06-14T18:25:09;101363.75;;;24.39;63.93
73240;BME280;61452;40.054;4.110;2023-06-14T18:30:12;101368.97;;;24.40;63.81
73240;BME280;61452;40.054;4.110;2023-06-14T18:35:16;101361.31;;;24.45;63.75
73240;BME280;61452;40.054;4.110;2023-06-14T18:40:19;101368.69;;;24.43;63.68
73240;BME280;61452;40.054;4.110;2023-06-14T18:45:21;101372.38;;;24.42;63.87
73240;BME280;61452;40.054;4.110;2023-06-14T18:50:23;101376.28;;;24.48;63.55
73240;BME280;61452;40.054;4.110;2023-06-14T18:55:26;101384.78;;;24.43;63.79
73240;BME280;61452;40.054;4.110;2023-06-14T19:00:28;101397.88;;;24.46;63.33
73240;BME280;61452;40.054;4.110;2023-06-14T19:05:32;101403.25;;;24.46;63.57
73240;BME280;61452;40.054;4.110;2023-06-14T19:10:34;101413.28;;;24.44;63.49
73240;BME280;61452;40.054;4.110;2023-06-14T19:15:37;101418.34;;;24.47;63.32
73240;BME280;61452;40.054;4.110;2023-06-14T19:20:39;101416.78;;;24.45;63.41
73240;BME280;61452;40.054;4.110;2023-06-14T19:25:41;101442.63;;;24.46;63.50
73240;BME280;61452;40.054;4.110;2023-06-14T19:30:44;101449.69;;;24.47;63.22
73240;BME280;61452;40.054;4.110;2023-06-14T19:35:46;101438.44;;;24.43;63.39
73240;BME280;61452;40.054;4.110;2023-06-14T19:40:48;101439.09;;;24.45;63.06
73240;BME280;61452;40.054;4.110;2023-06-14T19:45:50;101465.91;;;24.45;63.24
73240;BME280;61452;40.054;4.110;2023-06-14T19:50:52;101464.22;;;24.44;63.25
73240;BME280;61452;40.054;4.110;2023-06-14T19:55:54;101465.38;;;24.42;63.19
73240;BME280;61452;40.054;4.110;2023-06-14T20:00:57;101484.69;;;24.45;63.33
73240;BME280;61452;40.054;4.110;2023-06-14T20:05:59;101483.19;;;24.43;63.42
73240;BME280;61452;40.054;4.110;2023-06-14T20:11:01;101500.78;;;24.45;63.21
73240;BME280;61452;40.054;4.110;2023-06-14T20:16:03;101506.16;;;24.45;63.00
73240;BME280;61452;40.054;4.110;2023-06-14T20:21:07;101515.91;;;24.46;62.91
73240;BME280;61452;40.054;4.110;2023-06-14T20:26:09;101517.72;;;24.46;62.95
73240;BME280;61452;40.054;4.110;2023-06-14T20:31:14;101522.41;;;24.44;63.13
73240;BME280;61452;40.054;4.110;2023-06-14T20:36:20;101514.19;;;24.45;63.10
73240;BME280;61452;40.054;4.110;2023-06-14T20:41:23;101526.94;;;24.43;63.09
73240;BME280;61452;40.054;4.110;2023-06-14T20:46:25;101539.50;;;24.43;63.45
73240;BME280;61452;40.054;4.110;2023-06-14T20:51:30;101543.69;;;24.45;63.04
73240;BME280;61452;40.054;4.110;2023-06-14T20:56:32;101559.66;;;24.47;62.98
73240;BME280;61452;40.054;4.110;2023-06-14T21:01:34;101569.00;;;24.43;63.22
73240;BME280;61452;40.054;4.110;2023-06-14T21:06:37;101570.53;;;24.45;63.15
73240;BME280;61452;40.054;4.110;2023-06-14T21:11:40;101573.38;;;24.44;63.11
73240;BME280;61452;40.054;4.110;2023-06-14T21:16:42;101566.59;;;24.40;63.29
73240;BME280;61452;40.054;4.110;2023-06-14T21:21:44;101582.09;;;24.46;63.03
73240;BME280;61452;40.054;4.110;2023-06-14T21:26:47;101576.88;;;24.44;63.09
73240;BME280;61452;40.054;4.110;2023-06-14T21:31:49;101579.41;;;24.46;63.06
73240;BME280;61452;40.054;4.110;2023-06-14T21:36:52;101572.09;;;24.38;62.94
73240;BME280;61452;40.054;4.110;2023-06-14T21:41:54;101570.69;;;24.44;63.05
73240;BME280;61452;40.054;4.110;2023-06-14T21:46:56;101592.16;;;24.44;63.18
73240;BME280;61452;40.054;4.110;2023-06-14T21:51:59;101583.09;;;24.45;63.28
73240;BME280;61452;40.054;4.110;2023-06-14T21:57:01;101590.28;;;24.44;63.25
73240;BME280;61452;40.054;4.110;2023-06-14T22:02:03;101594.84;;;24.44;63.06
73240;BME280;61452;40.054;4.110;2023-06-14T22:07:05;101594.13;;;24.42;63.23
73240;BME280;61452;40.054;4.110;2023-06-14T22:12:09;101590.47;;;24.43;63.34
73240;BME280;61452;40.054;4.110;2023-06-14T22:17:18;101590.28;;;24.44;63.17
73240;BME280;61452;40.054;4.110;2023-06-14T22:22:24;101593.97;;;24.43;63.15
73240;BME280;61452;40.054;4.110;2023-06-14T22:27:27;101580.72;;;24.42;63.27
73240;BME280;61452;40.054;4.110;2023-06-14T22:32:30;101590.28;;;24.44;63.04
73240;BME280;61452;40.054;4.110;2023-06-14T22:37:34;101583.09;;;24.45;63.01
73240;BME280;61452;40.054;4.110;2023-06-14T22:42:48;101584.38;;;24.41;63.18
73240;BME280;61452;40.054;4.110;2023-06-14T22:47:51;101591.13;;;24.45;63.11
73240;BME280;61452;40.054;4.110;2023-06-14T22:52:54;101589.59;;;24.42;63.31
73240;BME280;61452;40.054;4.110;2023-06-14T22:57:56;101588.75;;;24.42;63.40
73240;BME280;61452;40.054;4.110;2023-06-14T23:02:58;101594.84;;;24.44;63.02
73240;BME280;61452;40.054;4.110;2023-06-14T23:08:00;101592.16;;;24.44;63.21
73240;BME280;61452;40.054;4.110;2023-06-14T23:13:03;101592.97;;;24.44;63.12
73240;BME280;61452;40.054;4.110;2023-06-14T23:18:05;101594.66;;;24.45;62.99
73240;BME280;61452;40.054;4.110;2023-06-14T23:23:07;101590.59;;;24.41;63.22
73240;BME280;61452;40.054;4.110;2023-06-14T23:28:09;101585.94;;;24.43;63.23
73240;BME280;61452;40.054;4.110;2023-06-14T23:33:14;101596.81;;;24.42;62.96
73240;BME280;61452;40.054;4.110;2023-06-14T23:38:17;101590.59;;;24.41;63.47
73240;BME280;61452;40.054;4.110;2023-06-14T23:43:20;101578.59;;;24.36;63.07
73240;BME280;61452;40.054;4.110;2023-06-14T23:48:23;101591.44;;;24.42;63.35
73240;BME280;61452;40.054;4.110;2023-06-14T23:53:28;101587.91;;;24.41;63.10
73240;BME280;61452;40.054;4.110;2023-06-14T23:58:30;101598.34;;;24.44;63.25
